Time;durP1;ratioP1;P1;durP2;ratioP2;P2;SDS_P1;SDS_P2;PMS_P1;PMS_P2;Temp;Humidity;BMP_temperature;BMP_pressure;BME280_temperature;BME280_humidity;BME280_pressure;Samples;Min_cycle;Max_cycle;Signal;HPM_P1;HPM_P2
2021/05/25 00:01:39;;;;;;;2.70;0.85;;;14.20;97.90;;;;;;4992352;28;20022;-70
2021/05/25 00:04:05;;;;;;;2.63;0.80;;;14.20;98.70;;;;;;4991331;28;20026;-70
2021/05/25 00:06:30;;;;;;;2.92;0.70;;;14.20;98.10;;;;;;4992489;28;20116;-70
2021/05/25 00:08:56;;;;;;;3.38;0.90;;;14.20;98.10;;;;;;4992722;28;20089;-70
2021/05/25 00:11:21;;;;;;;2.63;0.93;;;14.10;98.10;;;;;;4992153;28;20077;-70
2021/05/25 00:13:47;;;;;;;5.75;0.70;;;14.20;98.60;;;;;;4992341;28;20123;-70
2021/05/25 00:16:13;;;;;;;2.35;1.00;;;14.10;98.90;;;;;;4992306;28;20093;-70
2021/05/25 00:18:38;;;;;;;3.50;0.98;;;14.20;98.30;;;;;;4992188;28;20105;-70
2021/05/25 00:21:05;;;;;;;3.47;1.30;;;14.10;99.80;;;;;;4992106;28;20507;-70
2021/05/25 00:23:30;;;;;;;3.92;0.93;;;13.90;99.70;;;;;;4990663;28;20030;-70
2021/05/25 00:25:56;;;;;;;2.83;1.17;;;13.90;99.30;;;;;;4990783;28;20033;-70
2021/05/25 00:28:23;;;;;;;2.22;0.80;;;13.80;99.30;;;;;;4991986;28;20034;-70
2021/05/25 00:30:49;;;;;;;3.05;1.02;;;13.70;99.90;;;;;;4991897;28;20026;-70
2021/05/25 00:33:14;;;;;;;2.67;0.95;;;13.70;99.90;;;;;;4991643;28;20445;-70
2021/05/25 00:35:40;;;;;;;2.83;0.70;;;13.70;99.90;;;;;;4990658;28;20034;-70
2021/05/25 00:38:07;;;;;;;3.22;0.80;;;13.70;99.90;;;;;;4990647;28;20046;-70
2021/05/25 00:40:33;;;;;;;3.15;1.00;;;13.70;99.90;;;;;;4992169;28;20022;-70
2021/05/25 00:42:59;;;;;;;2.45;0.80;;;13.70;99.50;;;;;;4991981;28;20057;-70
2021/05/25 00:45:25;;;;;;;1.92;0.70;;;13.60;99.70;;;;;;4991648;28;20105;-70
2021/05/25 00:47:50;;;;;;;2.58;0.90;;;13.50;99.90;;;;;;4991634;28;20027;-70
2021/05/25 00:50:20;;;;;;;3.60;1.13;;;13.40;99.90;;;;;;4991561;28;20027;-70
2021/05/25 00:53:06;;;;;;;2.92;0.90;;;13.30;99.90;;;;;;4991538;28;20061;-70
2021/05/25 00:55:36;;;;;;;2.60;1.10;;;13.30;99.90;;;;;;4989787;28;20034;-70
2021/05/25 00:58:04;;;;;;;4.93;1.35;;;13.20;99.90;;;;;;4991582;28;20106;-70
2021/05/25 01:00:36;;;;;;;2.55;1.00;;;13.10;99.90;;;;;;4990157;28;20481;-70
2021/05/25 01:03:02;;;;;;;1.88;0.68;;;13.00;99.90;;;;;;4991294;28;20030;-70
2021/05/25 01:05:28;;;;;;;3.33;0.98;;;12.90;99.90;;;;;;4991490;28;20026;-70
2021/05/25 01:07:54;;;;;;;2.35;0.88;;;12.90;99.90;;;;;;4991340;28;20081;-70
2021/05/25 01:10:29;;;;;;;3.63;0.80;;;12.90;99.90;;;;;;4991249;28;20378;-70
2021/05/25 01:13:01;;;;;;;2.47;0.98;;;13.10;98.80;;;;;;4991181;28;20030;-70
2021/05/25 01:15:27;;;;;;;2.63;0.95;;;13.10;98.60;;;;;;4991426;28;20026;-70
2021/05/25 01:17:55;;;;;;;3.35;0.77;;;13.10;97.20;;;;;;4991372;28;20362;-70
2021/05/25 01:20:22;;;;;;;1.60;0.55;;;13.10;97.50;;;;;;4991171;28;20077;-70
2021/05/25 01:22:48;;;;;;;1.88;0.70;;;13.20;96.70;;;;;;4991082;28;20493;-70
2021/05/25 01:25:15;;;;;;;2.70;0.60;;;13.20;96.70;;;;;;4991632;28;20042;-70
2021/05/25 01:27:42;;;;;;;2.80;0.75;;;13.40;96.10;;;;;;4990037;28;20073;-70
2021/05/25 01:30:09;;;;;;;1.95;0.60;;;13.40;95.80;;;;;;4991183;28;20018;-70
2021/05/25 01:32:35;;;;;;;2.47;0.77;;;13.40;95.90;;;;;;4990840;28;20117;-70
2021/05/25 01:35:02;;;;;;;4.15;0.63;;;13.20;96.10;;;;;;4989909;28;20034;-70
2021/05/25 01:37:28;;;;;;;1.25;0.50;;;13.20;95.40;;;;;;4989926;28;20030;-70
2021/05/25 01:39:55;;;;;;;3.80;0.63;;;13.10;95.00;;;;;;4991140;28;20396;-70
2021/05/25 01:42:29;;;;;;;1.58;0.50;;;13.00;95.00;;;;;;4991097;28;20321;-70
2021/05/25 01:44:55;;;;;;;1.30;0.40;;;12.90;95.00;;;;;;4991568;28;20033;-70
2021/05/25 01:47:20;;;;;;;2.28;0.70;;;12.80;94.90;;;;;;4991623;28;20031;-70
2021/05/25 01:49:46;;;;;;;3.28;0.90;;;12.70;95.10;;;;;;4991002;28;20867;-70
2021/05/25 01:52:12;;;;;;;3.67;0.55;;;12.70;94.80;;;;;;4992164;28;20027;-70
2021/05/25 01:54:38;;;;;;;2.45;0.63;;;12.60;95.30;;;;;;4993627;28;20591;-70
2021/05/25 01:57:04;;;;;;;2.67;0.60;;;12.60;95.00;;;;;;4993347;28;20117;-70
2021/05/25 01:59:30;;;;;;;1.20;0.60;;;12.50;95.00;;;;;;4994817;28;20049;-70
2021/05/25 02:01:56;;;;;;;1.20;0.60;;;12.50;95.10;;;;;;4994594;28;20061;-70
2021/05/25 02:04:21;;;;;;;3.58;0.60;;;12.50;95.20;;;;;;4994876;28;20098;-70
2021/05/25 02:06:47;;;;;;;3.58;1.00;;;12.60;95.30;;;;;;4994822;28;20030;-70
2021/05/25 02:09:12;;;;;;;2.33;0.60;;;12.60;95.20;;;;;;4994430;28;20038;-70
2021/05/25 02:11:38;;;;;;;2.22;0.60;;;12.60;94.90;;;;;;4994334;28;20058;-70
2021/05/25 02:14:04;;;;;;;0.63;0.40;;;12.60;95.40;;;;;;4993473;28;20038;-70
2021/05/25 02:16:29;;;;;;;3.15;0.70;;;12.60;95.10;;;;;;4993186;28;20029;-70
2021/05/25 02:18:55;;;;;;;1.58;0.50;;;12.50;95.10;;;;;;4994415;28;20026;-70
2021/05/25 02:21:21;;;;;;;2.90;0.55;;;12.50;95.30;;;;;;4994118;28;20069;-70
2021/05/25 02:23:48;;;;;;;3.50;0.60;;;12.50;95.10;;;;;;4994361;28;20030;-70
2021/05/25 02:26:14;;;;;;;1.80;0.45;;;12.40;95.40;;;;;;4994348;28;20030;-70
2021/05/25 02:28:40;;;;;;;2.90;0.60;;;12.50;95.20;;;;;;4994445;28;20038;-70
2021/05/25 02:31:06;;;;;;;1.85;0.30;;;12.30;95.20;;;;;;4993988;28;20030;-70
2021/05/25 02:33:32;;;;;;;3.03;0.50;;;12.30;95.20;;;;;;4993938;28;20447;-70
2021/05/25 02:35:59;;;;;;;1.08;0.52;;;12.20;95.40;;;;;;4994110;28;20026;-70
2021/05/25 02:38:26;;;;;;;2.30;0.98;;;12.20;95.30;;;;;;4994533;28;20081;-70
2021/05/25 02:40:52;;;;;;;2.10;0.70;;;12.10;95.30;;;;;;4994140;28;20030;-70
2021/05/25 02:43:21;;;;;;;3.88;0.52;;;12.10;95.60;;;;;;4993827;28;20052;-70
2021/05/25 02:45:47;;;;;;;2.28;0.50;;;12.10;95.10;;;;;;4993111;28;20027;-70
2021/05/25 02:48:13;;;;;;;2.25;0.50;;;12.10;95.10;;;;;;4993839;28;20584;-70
2021/05/25 02:50:39;;;;;;;4.20;0.73;;;12.10;95.30;;;;;;4992744;28;20026;-70
2021/05/25 02:53:05;;;;;;;2.58;0.57;;;12.00;95.20;;;;;;4993734;28;20046;-70
2021/05/25 02:55:38;;;;;;;2.00;0.63;;;12.00;95.00;;;;;;4993861;28;20045;-70
2021/05/25 02:58:05;;;;;;;2.40;0.45;;;12.00;95.00;;;;;;4993785;28;20073;-70
2021/05/25 03:00:33;;;;;;;1.30;0.40;;;12.00;95.00;;;;;;4993709;28;20022;-70
2021/05/25 03:02:59;;;;;;;3.03;0.80;;;12.00;94.80;;;;;;4992828;28;20081;-70
2021/05/25 03:05:25;;;;;;;2.47;0.50;;;12.00;95.20;;;;;;4993208;28;20030;-70
2021/05/25 03:07:57;;;;;;;4.05;0.90;;;11.90;95.10;;;;;;4993518;28;20485;-69
2021/05/25 03:10:26;;;;;;;1.45;0.60;;;12.00;95.40;;;;;;4993348;28;20085;-70
2021/05/25 03:12:52;;;;;;;1.60;0.45;;;12.00;95.10;;;;;;4991885;28;20022;-70
2021/05/25 03:15:23;;;;;;;3.72;0.52;;;12.00;95.20;;;;;;4993437;28;20077;-70
2021/05/25 03:17:48;;;;;;;3.67;1.05;;;11.90;95.10;;;;;;4993372;28;20090;-70
2021/05/25 03:20:15;;;;;;;1.42;0.40;;;12.00;94.70;;;;;;4993213;28;20073;-70
2021/05/25 03:22:41;;;;;;;1.23;0.50;;;11.80;95.00;;;;;;4992923;28;20498;-70
2021/05/25 03:25:09;;;;;;;2.20;0.50;;;11.80;94.80;;;;;;4992010;28;20080;-70
2021/05/25 03:27:35;;;;;;;3.47;0.80;;;11.80;94.80;;;;;;4993006;28;20054;-70
2021/05/25 03:30:00;;;;;;;1.67;0.65;;;11.70;94.50;;;;;;4993208;28;20084;-70
2021/05/25 03:32:26;;;;;;;1.35;0.50;;;11.60;94.90;;;;;;4992898;28;20530;-70
2021/05/25 03:34:51;;;;;;;1.83;0.85;;;11.60;94.10;;;;;;4993114;28;20025;-70
2021/05/25 03:37:17;;;;;;;2.30;0.65;;;11.60;94.20;;;;;;4993071;28;20089;-70
2021/05/25 03:39:43;;;;;;;2.20;0.52;;;11.50;93.70;;;;;;4993011;28;20031;-69
2021/05/25 03:42:08;;;;;;;1.15;0.50;;;11.40;93.80;;;;;;4992770;28;20037;-70
2021/05/25 03:44:34;;;;;;;1.70;0.40;;;11.30;93.80;;;;;;4992991;28;20026;-70
2021/05/25 03:47:00;;;;;;;2.33;0.70;;;11.30;93.90;;;;;;4992922;28;20370;-69
2021/05/25 03:49:25;;;;;;;1.45;0.60;;;11.20;93.60;;;;;;4992802;28;20032;-70
2021/05/25 03:51:51;;;;;;;1.60;0.47;;;11.20;93.40;;;;;;4992542;28;20117;-70
2021/05/25 03:54:24;;;;;;;2.13;0.47;;;11.20;93.30;;;;;;4992729;28;20101;-70
2021/05/25 03:57:06;;;;;;;1.60;0.50;;;11.10;93.40;;;;;;4992634;28;20492;-70
2021/05/25 03:59:32;;;;;;;2.15;0.43;;;11.10;93.80;;;;;;4992665;28;20022;-70
2021/05/25 04:01:58;;;;;;;2.05;0.57;;;11.00;93.70;;;;;;4992369;28;20510;-70
2021/05/25 04:04:24;;;;;;;4.35;0.50;;;11.00;93.30;;;;;;4992605;28;20031;-70
2021/05/25 04:06:49;;;;;;;2.92;1.00;;;10.90;93.30;;;;;;4992533;28;20032;-70
2021/05/25 04:09:15;;;;;;;1.00;0.40;;;10.90;93.20;;;;;;4992187;28;20034;-70
2021/05/25 04:11:40;;;;;;;2.63;0.40;;;10.90;93.20;;;;;;4992095;28;20045;-70
2021/05/25 04:14:06;;;;;;;1.42;0.65;;;10.90;93.40;;;;;;4992367;28;20030;-70
2021/05/25 04:16:33;;;;;;;2.95;0.63;;;10.90;93.20;;;;;;4992147;28;20033;-70
2021/05/25 04:18:59;;;;;;;1.67;0.50;;;10.90;93.50;;;;;;4991053;28;20113;-70
2021/05/25 04:21:24;;;;;;;1.95;0.50;;;10.90;93.30;;;;;;4992018;28;20061;-70
2021/05/25 04:23:50;;;;;;;5.60;0.73;;;10.90;93.40;;;;;;4991031;28;20022;-69
2021/05/25 04:26:15;;;;;;;1.88;0.60;;;10.90;93.60;;;;;;4992177;28;20101;-70
2021/05/25 04:28:41;;;;;;;1.70;0.52;;;10.90;93.70;;;;;;4991704;28;20018;-69
2021/05/25 04:31:06;;;;;;;1.73;0.60;;;10.80;93.60;;;;;;4990843;28;20052;-70
2021/05/25 04:33:32;;;;;;;6.07;2.97;;;10.80;93.80;;;;;;4991892;28;20037;-70
2021/05/25 04:35:57;;;;;;;2.28;0.40;;;10.80;93.80;;;;;;4992173;28;20034;-70
2021/05/25 04:38:23;;;;;;;3.45;0.50;;;10.90;93.80;;;;;;4992033;28;20031;-69
2021/05/25 04:40:49;;;;;;;4.18;0.57;;;10.90;93.60;;;;;;4991965;28;20097;-70
2021/05/25 04:43:15;;;;;;;1.48;0.65;;;10.90;93.80;;;;;;4992052;28;20049;-69
2021/05/25 04:45:42;;;;;;;0.88;0.45;;;10.90;93.90;;;;;;4991897;28;20022;-69
2021/05/25 04:48:09;;;;;;;3.40;1.13;;;10.90;94.10;;;;;;4991960;28;20026;-69
2021/05/25 04:50:35;;;;;;;4.53;0.93;;;10.90;94.60;;;;;;4991740;28;20061;-70
2021/05/25 04:53:01;;;;;;;3.65;1.25;;;11.00;94.10;;;;;;4991672;28;20541;-70
2021/05/25 04:55:27;;;;;;;2.63;0.88;;;11.00;93.90;;;;;;4990541;28;20064;-70
2021/05/25 04:57:53;;;;;;;2.05;0.52;;;11.00;94.30;;;;;;4991856;28;20054;-72
2021/05/25 05:00:27;;;;;;;2.30;0.80;;;11.10;94.20;;;;;;4991806;28;20023;-70
2021/05/25 05:02:54;;;;;;;3.00;0.88;;;11.10;93.30;;;;;;4991551;28;20388;-70
2021/05/25 05:05:19;;;;;;;4.78;0.65;;;11.10;93.40;;;;;;4991529;28;20018;-71
2021/05/25 05:07:47;;;;;;;3.47;0.77;;;11.00;93.40;;;;;;4990526;28;20497;-70
2021/05/25 05:10:12;;;;;;;2.05;0.70;;;11.20;93.30;;;;;;4991445;28;20042;-70
2021/05/25 05:12:38;;;;;;;2.00;0.52;;;11.10;93.30;;;;;;4990029;28;20130;-70
2021/05/25 05:15:04;;;;;;;3.05;0.73;;;11.30;93.00;;;;;;4991328;28;20370;-70
2021/05/25 05:17:31;;;;;;;4.80;0.70;;;11.30;93.00;;;;;;5003560;28;20030;-70
2021/05/25 05:19:57;;;;;;;4.03;0.57;;;11.40;92.30;;;;;;4991461;28;20038;-70
2021/05/25 05:22:23;;;;;;;3.28;0.60;;;11.40;92.30;;;;;;4990810;28;20058;-69
2021/05/25 05:24:49;;;;;;;3.75;0.73;;;11.50;92.30;;;;;;4991420;28;20030;-70
2021/05/25 05:27:15;;;;;;;4.10;0.40;;;11.60;92.40;;;;;;4991661;28;20033;-69
2021/05/25 05:29:41;;;;;;;1.95;0.70;;;11.60;92.20;;;;;;4994836;28;20030;-70
2021/05/25 05:32:06;;;;;;;1.88;0.50;;;11.70;92.00;;;;;;5001277;28;20033;-70
2021/05/25 05:34:33;;;;;;;3.90;0.73;;;11.80;91.90;;;;;;5014665;28;20021;-70
2021/05/25 05:36:59;;;;;;;4.30;0.52;;;11.90;92.60;;;;;;5014824;28;20101;-70
2021/05/25 05:39:24;;;;;;;2.95;0.55;;;11.90;91.20;;;;;;5014822;28;20587;-70
2021/05/25 05:41:50;;;;;;;1.95;0.60;;;11.90;91.50;;;;;;5014511;28;20160;-70
2021/05/25 05:44:15;;;;;;;2.08;0.50;;;12.00;91.70;;;;;;5014763;28;20049;-70
2021/05/25 05:46:41;;;;;;;1.23;0.52;;;12.10;91.40;;;;;;5014688;28;20030;-70
2021/05/25 05:49:07;;;;;;;3.22;0.60;;;12.20;91.20;;;;;;5011138;28;20027;-70
2021/05/25 05:51:32;;;;;;;2.95;0.50;;;12.20;91.50;;;;;;4994684;28;20050;-70
2021/05/25 05:53:58;;;;;;;2.25;0.50;;;12.30;91.70;;;;;;4993769;28;20022;-70
2021/05/25 05:56:25;;;;;;;0.98;0.40;;;12.30;91.60;;;;;;4994900;28;20030;-70
2021/05/25 05:58:51;;;;;;;2.67;0.57;;;12.30;91.60;;;;;;4994709;28;20019;-70
2021/05/25 06:01:17;;;;;;;4.07;1.20;;;12.40;92.20;;;;;;4994657;28;20600;-70
2021/05/25 06:03:46;;;;;;;1.85;0.40;;;12.40;91.90;;;;;;4994842;28;20030;-70
2021/05/25 06:06:12;;;;;;;3.92;0.60;;;12.40;91.50;;;;;;4994781;28;20085;-70
2021/05/25 06:08:39;;;;;;;3.58;0.50;;;12.20;91.90;;;;;;4993237;28;20033;-70
2021/05/25 06:11:04;;;;;;;1.83;0.60;;;12.00;94.00;;;;;;5000118;28;20028;-70
2021/05/25 06:13:30;;;;;;;1.98;0.80;;;11.80;93.90;;;;;;5009298;28;20023;-69
2021/05/25 06:16:01;;;;;;;2.05;0.50;;;11.60;93.70;;;;;;4994542;28;20473;-69
2021/05/25 06:18:27;;;;;;;3.13;0.68;;;11.70;94.00;;;;;;4994552;28;20014;-70
2021/05/25 06:20:53;;;;;;;2.85;0.40;;;11.80;93.60;;;;;;4992854;28;20034;-70
2021/05/25 06:23:19;;;;;;;1.23;0.50;;;11.90;93.20;;;;;;5013353;28;20389;-70
2021/05/25 06:25:45;;;;;;;3.53;0.70;;;12.00;93.40;;;;;;5013897;28;20112;-71
2021/05/25 06:28:11;;;;;;;1.75;0.50;;;12.00;92.80;;;;;;5012784;28;20025;-70
2021/05/25 06:30:37;;;;;;;2.60;0.40;;;12.10;92.10;;;;;;5013839;28;20496;-70
2021/05/25 06:33:04;;;;;;;1.50;0.60;;;12.10;92.10;;;;;;5013845;28;20018;-69
2021/05/25 06:35:30;;;;;;;2.28;0.47;;;12.10;92.20;;;;;;5013993;28;20037;-70
2021/05/25 06:37:57;;;;;;;1.83;0.43;;;12.30;92.40;;;;;;5013797;28;20419;-70
2021/05/25 06:40:22;;;;;;;3.15;0.70;;;12.30;92.20;;;;;;5013863;28;20112;-70
2021/05/25 06:42:48;;;;;;;1.85;0.40;;;12.30;92.10;;;;;;5013438;28;20049;-70
2021/05/25 06:45:14;;;;;;;1.38;0.40;;;12.20;92.30;;;;;;5013598;28;20503;-69
2021/05/25 06:47:39;;;;;;;1.27;0.50;;;12.20;92.50;;;;;;5013547;28;20026;-70
2021/05/25 06:50:06;;;;;;;3.33;0.77;;;12.40;93.10;;;;;;5002575;28;20098;-70
2021/05/25 06:52:31;;;;;;;2.33;0.40;;;12.50;92.30;;;;;;4992688;28;20033;-70
2021/05/25 06:54:59;;;;;;;1.17;0.35;;;12.40;92.70;;;;;;4992219;28;20175;-69
2021/05/25 06:57:24;;;;;;;0.55;0.22;;;12.00;92.80;;;;;;4992192;28;20444;-69
2021/05/25 06:59:50;;;;;;;2.17;0.60;;;11.80;93.40;;;;;;4993653;28;20030;-70
2021/05/25 07:02:16;;;;;;;3.03;0.50;;;11.70;93.40;;;;;;4991688;28;20030;-70
2021/05/25 07:04:42;;;;;;;3.47;0.50;;;11.80;94.40;;;;;;4993677;28;20037;-70
2021/05/25 07:07:07;;;;;;;2.35;0.50;;;11.90;92.80;;;;;;4993591;28;20473;-70
2021/05/25 07:09:33;;;;;;;2.15;0.40;;;12.00;92.70;;;;;;4992009;28;20531;-70
2021/05/25 07:12:02;;;;;;;2.45;0.40;;;12.00;92.20;;;;;;4993135;28;20023;-70
2021/05/25 07:14:28;;;;;;;0.85;0.40;;;12.00;93.30;;;;;;4993579;28;20029;-70
2021/05/25 07:16:54;;;;;;;2.33;0.32;;;12.20;92.70;;;;;;4993436;28;20548;-70
2021/05/25 07:19:19;;;;;;;2.17;0.60;;;12.30;91.70;;;;;;4992125;28;20161;-70
2021/05/25 07:21:45;;;;;;;2.80;0.30;;;12.30;91.90;;;;;;4993157;28;20076;-70
2021/05/25 07:24:11;;;;;;;4.13;0.50;;;12.30;91.50;;;;;;4993404;28;20109;-69
2021/05/25 07:26:36;;;;;;;1.25;0.38;;;12.30;92.00;;;;;;4992880;28;20109;-70
2021/05/25 07:29:02;;;;;;;1.70;0.40;;;12.50;91.70;;;;;;4993223;28;20037;-70
2021/05/25 07:31:28;;;;;;;1.73;0.57;;;12.60;91.50;;;;;;4992777;28;20033;-70
2021/05/25 07:33:53;;;;;;;2.90;0.52;;;12.80;91.30;;;;;;4993167;28;20105;-69
2021/05/25 07:36:19;;;;;;;2.53;0.40;;;12.80;91.30;;;;;;4993043;28;20045;-70
2021/05/25 07:38:46;;;;;;;2.35;0.40;;;12.70;90.90;;;;;;4992993;28;20097;-70
2021/05/25 07:41:11;;;;;;;5.68;0.52;;;12.80;91.10;;;;;;4992974;28;20022;-69
2021/05/25 07:43:37;;;;;;;1.40;0.40;;;12.90;91.40;;;;;;4994753;28;20030;-71
2021/05/25 07:46:03;;;;;;;2.22;0.60;;;13.20;90.30;;;;;;5000496;28;20019;-70
2021/05/25 07:48:28;;;;;;;3.15;0.43;;;13.30;90.40;;;;;;5001977;28;20101;-70
2021/05/25 07:50:54;;;;;;;1.92;0.77;;;13.50;90.20;;;;;;5000711;28;20081;-69
2021/05/25 07:53:20;;;;;;;1.88;0.40;;;13.50;88.60;;;;;;5000292;28;20078;-70
2021/05/25 07:55:45;;;;;;;2.83;0.25;;;13.50;89.50;;;;;;4995141;28;20018;-71
2021/05/25 07:58:13;;;;;;;2.38;0.95;;;13.60;88.30;;;;;;4999550;28;20030;-70
2021/05/25 08:00:39;;;;;;;4.10;0.43;;;13.50;87.30;;;;;;5000937;28;20034;-70
2021/05/25 08:03:05;;;;;;;3.10;0.52;;;13.50;88.90;;;;;;5012116;28;20025;-71
2021/05/25 08:05:32;;;;;;;2.03;0.40;;;13.40;87.50;;;;;;5012392;28;20437;-70
2021/05/25 08:08:00;;;;;;;1.85;0.50;;;13.40;88.60;;;;;;5011027;28;20025;-70
2021/05/25 08:10:26;;;;;;;1.25;0.35;;;13.30;87.40;;;;;;4999905;28;20125;-71
2021/05/25 08:12:51;;;;;;;4.22;0.30;;;13.10;88.70;;;;;;5002613;28;20429;-70
2021/05/25 08:15:19;;;;;;;0.57;0.30;;;13.10;89.10;;;;;;5000985;28;20441;-70
2021/05/25 08:20:18;;;;;;;3.28;0.50;;;13.30;89.40;;;;;;4992573;28;20102;-70
2021/05/25 08:22:50;;;;;;;0.63;0.22;;;13.20;89.90;;;;;;4992296;28;20101;-70
2021/05/25 08:25:19;;;;;;;2.25;0.55;;;13.10;90.40;;;;;;4992395;28;20030;-70
2021/05/25 08:27:46;;;;;;;0.75;0.32;;;13.20;90.80;;;;;;4992262;28;20030;-70
2021/05/25 08:30:13;;;;;;;1.27;0.20;;;13.40;89.30;;;;;;5000460;28;20507;-70
2021/05/25 08:32:39;;;;;;;1.25;0.40;;;13.60;86.90;;;;;;5003506;28;20026;-69
2021/05/25 08:35:05;;;;;;;0.88;0.25;;;13.60;87.50;;;;;;5007880;28;20026;-75
2021/05/25 08:37:32;;;;;;;2.88;0.77;;;13.60;87.60;;;;;;5011653;28;20488;-69
2021/05/25 08:39:59;;;;;;;1.15;0.20;;;13.40;86.60;;;;;;5011578;28;20496;-70
2021/05/25 08:42:25;;;;;;;3.22;0.50;;;13.30;87.70;;;;;;5011365;28;20392;-70
2021/05/25 08:44:50;;;;;;;2.25;0.30;;;13.30;87.70;;;;;;5011529;28;20022;-70
2021/05/25 08:47:17;;;;;;;3.08;0.30;;;13.40;89.20;;;;;;5010167;28;20068;-70
2021/05/25 08:49:46;;;;;;;0.70;0.13;;;13.60;88.70;;;;;;5011333;28;20053;-70
2021/05/25 08:52:12;;;;;;;2.05;0.30;;;13.60;87.40;;;;;;5009636;28;20424;-68
2021/05/25 08:54:40;;;;;;;0.43;0.20;;;13.80;87.10;;;;;;4996112;28;20025;-70
2021/05/25 08:57:06;;;;;;;1.35;0.30;;;13.80;87.50;;;;;;4991435;28;20018;-69
2021/05/25 08:59:32;;;;;;;1.10;0.30;;;13.90;85.70;;;;;;4998201;28;20617;-69
2021/05/25 09:01:57;;;;;;;1.08;0.38;;;13.70;86.30;;;;;;5008855;28;20034;-70
2021/05/25 09:04:23;;;;;;;1.95;0.40;;;13.90;88.20;;;;;;5009926;28;20038;-70
2021/05/25 09:06:49;;;;;;;0.60;0.30;;;14.40;87.90;;;;;;5011198;28;20438;-69
2021/05/25 09:09:20;;;;;;;1.05;0.45;;;14.50;84.30;;;;;;5009645;28;20072;-70
2021/05/25 09:12:08;;;;;;;0.85;0.30;;;14.50;86.60;;;;;;5010771;28;20030;-70
2021/05/25 09:14:48;;;;;;;2.15;0.50;;;14.30;85.60;;;;;;5011129;28;20112;-70
2021/05/25 09:17:25;;;;;;;2.80;0.27;;;14.40;85.10;;;;;;5011128;28;20097;-70
2021/05/25 09:19:52;;;;;;;0.88;0.28;;;14.10;85.10;;;;;;5001846;28;20019;-69
2021/05/25 09:22:34;;;;;;;1.45;0.20;;;14.10;84.70;;;;;;5000458;28;20025;-70
2021/05/25 09:25:20;;;;;;;1.38;0.20;;;14.10;86.80;;;;;;4998413;28;20027;-69
2021/05/25 09:27:57;;;;;;;1.33;0.30;;;14.10;85.10;;;;;;4998442;28;20038;-70
2021/05/25 09:30:25;;;;;;;0.73;0.40;;;14.00;86.30;;;;;;5007044;28;20030;-69
2021/05/25 09:32:58;;;;;;;1.60;0.40;;;14.10;86.10;;;;;;5010658;28;20022;-69
2021/05/25 09:35:25;;;;;;;1.77;0.30;;;14.10;86.00;;;;;;5010855;28;20018;-70
2021/05/25 09:37:53;;;;;;;1.50;0.30;;;14.20;86.10;;;;;;5010912;28;20058;-70
2021/05/25 09:40:23;;;;;;;4.07;1.23;;;14.30;86.20;;;;;;5006808;28;20022;-69
2021/05/25 09:42:52;;;;;;;1.05;0.20;;;14.40;85.80;;;;;;4991932;28;20125;-70
2021/05/25 09:45:18;;;;;;;1.00;0.20;;;14.40;85.40;;;;;;5010563;28;20065;-70
2021/05/25 09:47:53;;;;;;;0.40;0.20;;;14.40;86.30;;;;;;5010838;28;20046;-69
2021/05/25 09:50:21;;;;;;;1.58;0.25;;;14.40;86.90;;;;;;5009506;28;20488;-70
2021/05/25 09:53:05;;;;;;;1.58;0.38;;;14.50;85.50;;;;;;5010492;28;20050;-69
2021/05/25 09:55:46;;;;;;;0.98;0.40;;;14.50;84.60;;;;;;5009537;28;20022;-69
2021/05/25 09:58:12;;;;;;;1.50;0.25;;;14.40;84.50;;;;;;5010754;28;20022;-70
2021/05/25 10:00:39;;;;;;;0.50;0.30;;;14.40;85.00;;;;;;5010722;28;20076;-70
2021/05/25 10:03:21;;;;;;;1.20;0.22;;;14.40;85.10;;;;;;5010412;28;20053;-69
2021/05/25 10:05:51;;;;;;;1.40;0.43;;;14.60;84.90;;;;;;5010705;28;20647;-69
2021/05/25 10:08:20;;;;;;;1.75;0.30;;;14.70;83.20;;;;;;5009319;28;20650;-69
2021/05/25 10:10:46;;;;;;;2.15;0.35;;;14.40;83.70;;;;;;5009307;28;20411;-70
2021/05/25 10:13:13;;;;;;;1.25;0.30;;;14.40;86.50;;;;;;5011843;28;20022;-70
2021/05/25 10:15:41;;;;;;;2.10;0.32;;;14.40;82.20;;;;;;5013303;28;20045;-70
2021/05/25 10:20:33;;;;;;;1.88;0.20;;;14.50;86.60;;;;;;5005851;28;20017;-69
2021/05/25 10:22:59;;;;;;;1.38;0.30;;;14.50;83.90;;;;;;5007219;28;20026;-70
2021/05/25 10:25:28;;;;;;;1.73;0.20;;;14.40;85.40;;;;;;4994448;28;20034;-70
2021/05/25 10:27:53;;;;;;;1.08;0.40;;;14.20;86.30;;;;;;4994374;28;20037;-70
2021/05/25 10:30:44;;;;;;;0.98;0.22;;;14.20;85.70;;;;;;4994303;28;20026;-70
2021/05/25 10:33:10;;;;;;;1.30;0.20;;;14.20;86.60;;;;;;4993857;28;20018;-70
2021/05/25 10:35:52;;;;;;;0.55;0.20;;;14.30;86.20;;;;;;4994280;28;20034;-70
2021/05/25 10:38:29;;;;;;;1.38;0.25;;;14.20;89.10;;;;;;4992863;28;20504;-70
2021/05/25 10:41:04;;;;;;;2.72;0.22;;;14.40;87.70;;;;;;4994125;28;20026;-70
2021/05/25 10:43:33;;;;;;;1.75;0.20;;;14.20;87.60;;;;;;4993876;28;20106;-71
2021/05/25 10:46:10;;;;;;;0.88;0.20;;;14.10;88.80;;;;;;4993936;28;20019;-69
2021/05/25 10:49:12;;;;;;;2.72;0.13;;;14.00;89.70;;;;;;4993804;28;20022;-70
2021/05/25 10:54:27;;;;;;;0.13;0.00;;;14.40;89.20;;;;;;4994469;28;20035;-70
2021/05/25 10:56:53;;;;;;;0.50;0.10;;;14.60;88.70;;;;;;4994132;28;20065;-69
2021/05/25 10:59:20;;;;;;;3.33;0.35;;;14.80;88.60;;;;;;4994159;28;20031;-70
2021/05/25 11:01:58;;;;;;;0.52;0.30;;;14.60;89.30;;;;;;4992561;28;20374;-70
2021/05/25 11:04:44;;;;;;;0.65;0.20;;;14.50;88.60;;;;;;4992838;28;20035;-70
2021/05/25 11:07:35;;;;;;;0.60;0.17;;;14.60;89.30;;;;;;4993563;28;20038;-70
2021/05/25 11:10:28;;;;;;;1.45;0.28;;;14.80;88.60;;;;;;4993658;28;20034;-70
2021/05/25 11:16:20;;;;;;;2.25;0.45;;;14.70;89.70;;;;;;4993482;28;20030;-70
2021/05/25 11:18:53;;;;;;;0.20;0.10;;;13.90;93.80;;;;;;4993470;28;20018;-70
2021/05/25 11:24:46;;;;;;;0.65;0.28;;;13.50;95.70;;;;;;4993134;28;20117;-69
2021/05/25 11:27:14;;;;;;;0.60;0.22;;;13.80;93.20;;;;;;4992262;28;20034;-70
2021/05/25 11:30:00;;;;;;;0.57;0.28;;;14.10;92.00;;;;;;4994033;28;20107;-70
2021/05/25 11:32:27;;;;;;;2.17;0.32;;;14.50;91.30;;;;;;4992934;28;20113;-69
2021/05/25 11:34:59;;;;;;;2.60;0.20;;;14.60;90.50;;;;;;4993267;28;20029;-70
2021/05/25 11:37:26;;;;;;;0.30;0.20;;;14.70;90.60;;;;;;4993374;28;20026;-70
2021/05/25 11:39:53;;;;;;;1.85;0.20;;;14.80;90.30;;;;;;4992144;28;20058;-70
2021/05/25 11:42:31;;;;;;;0.30;0.10;;;15.00;90.50;;;;;;4993197;28;20027;-69
2021/05/25 11:44:57;;;;;;;0.85;0.10;;;15.10;88.60;;;;;;4993387;28;20026;-70
2021/05/25 11:47:23;;;;;;;0.82;0.30;;;14.90;90.30;;;;;;4993376;28;20034;-70
2021/05/25 11:49:49;;;;;;;0.35;0.10;;;15.00;90.40;;;;;;4993422;28;20446;-70
2021/05/25 11:52:23;;;;;;;3.47;0.30;;;15.30;88.40;;;;;;4991883;28;20026;-70
2021/05/25 11:54:51;;;;;;;0.95;0.10;;;15.30;88.20;;;;;;4993433;28;20103;-70
2021/05/25 11:57:46;;;;;;;1.35;0.22;;;15.20;88.70;;;;;;4993201;28;20046;-70
2021/05/25 12:00:21;;;;;;;0.75;0.10;;;15.00;88.80;;;;;;4992059;28;20039;-70
2021/05/25 12:02:55;;;;;;;1.20;0.20;;;15.10;88.40;;;;;;4991740;28;20073;-69
2021/05/25 12:05:24;;;;;;;0.50;0.10;;;15.20;87.90;;;;;;4992907;28;20065;-70
2021/05/25 12:07:57;;;;;;;0.70;0.10;;;15.30;87.80;;;;;;4991539;28;20030;-70
2021/05/25 12:10:25;;;;;;;0.00;0.00;;;15.50;86.00;;;;;;4993075;28;20034;-69
2021/05/25 12:12:52;;;;;;;0.65;0.20;;;15.30;87.40;;;;;;4990790;28;20037;-69
2021/05/25 12:15:27;;;;;;;1.20;0.10;;;15.30;86.70;;;;;;4992392;28;20046;-70
2021/05/25 12:17:57;;;;;;;0.00;0.00;;;15.50;84.30;;;;;;4992147;28;20026;-69
2021/05/25 12:20:37;;;;;;;1.55;0.10;;;15.50;85.00;;;;;;4992139;28;20062;-69
2021/05/25 12:23:06;;;;;;;1.42;0.40;;;15.30;85.00;;;;;;4991923;28;20054;-70
2021/05/25 12:25:32;;;;;;;0.28;0.10;;;15.30;83.90;;;;;;4991024;28;20032;-69
2021/05/25 12:28:08;;;;;;;0.45;0.20;;;15.40;84.30;;;;;;4990832;28;20030;-70
2021/05/25 12:30:36;;;;;;;0.25;0.10;;;15.80;82.90;;;;;;4992549;28;20119;-69
2021/05/25 12:33:03;;;;;;;0.30;0.10;;;16.10;82.40;;;;;;5001895;28;20034;-70
2021/05/25 12:35:29;;;;;;;1.17;0.20;;;16.10;82.70;;;;;;4990395;28;20026;-70
2021/05/25 12:38:11;;;;;;;2.63;0.10;;;16.50;82.40;;;;;;4991884;28;20076;-70
2021/05/25 12:40:38;;;;;;;2.58;0.25;;;16.80;81.80;;;;;;4991685;28;20046;-70
2021/05/25 12:43:20;;;;;;;0.17;0.00;;;17.20;81.50;;;;;;5006654;28;20037;-69
2021/05/25 12:45:47;;;;;;;1.65;0.17;;;17.60;78.40;;;;;;4991689;28;20025;-70
2021/05/25 12:48:13;;;;;;;0.68;0.10;;;18.00;78.30;;;;;;4990417;28;20077;-70
2021/05/25 12:50:43;;;;;;;0.50;0.20;;;18.10;80.60;;;;;;4990314;28;20034;-71
2021/05/25 12:53:16;;;;;;;0.73;0.10;;;18.40;76.80;;;;;;4991394;28;20018;-71
2021/05/25 12:55:50;;;;;;;3.40;0.20;;;18.50;75.50;;;;;;4991601;28;20026;-70
2021/05/25 12:58:39;;;;;;;1.55;0.25;;;17.80;75.70;;;;;;4997248;28;20061;-70
2021/05/25 13:01:28;;;;;;;0.70;0.10;;;17.30;76.70;;;;;;5009967;28;20022;-70
2021/05/25 13:04:13;;;;;;;0.25;0.13;;;17.30;76.70;;;;;;5011231;28;20022;-70
2021/05/25 13:07:01;;;;;;;2.45;0.20;;;17.40;76.10;;;;;;5010862;28;20044;-70
2021/05/25 13:09:41;;;;;;;0.70;0.20;;;17.10;76.50;;;;;;5011157;28;20033;-70